sensor_id;sensor_type;location;lat;lon;timestamp;temperature;humidity
20366;DHT22;10341;49.894;8.822;2022-10-12T00:04:04;4.40;99.90
20366;DHT22;10341;49.894;8.822;2022-10-12T00:09:23;4.30;99.90
20366;DHT22;10341;49.894;8.822;2022-10-12T00:14:42;4.30;99.90
20366;DHT22;10341;49.894;8.822;2022-10-12T00:20:03;4.20;99.90
20366;DHT22;10341;49.894;8.822;2022-10-12T00:25:23;4.10;99.90
20366;DHT22;10341;49.894;8.822;2022-10-12T00:30:42;4.10;99.90
20366;DHT22;10341;49.894;8.822;2022-10-12T00:36:17;4.00;99.90
20366;DHT22;10341;49.894;8.822;2022-10-12T00:41:40;4.00;99.90
20366;DHT22;10341;49.894;8.822;2022-10-12T00:47:04;3.90;99.90
20366;DHT22;10341;49.894;8.822;2022-10-12T00:52:30;3.90;99.90
20366;DHT22;10341;49.894;8.822;2022-10-12T00:57:50;3.90;99.90
20366;DHT22;10341;49.894;8.822;2022-10-12T01:03:14;3.90;99.90
20366;DHT22;10341;49.894;8.822;2022-10-12T01:08:35;3.80;99.90
20366;DHT22;10341;49.894;8.822;2022-10-12T01:13:55;3.80;99.90
20366;DHT22;10341;49.894;8.822;2022-10-12T01:25:45;3.80;99.90
20366;DHT22;10341;49.894;8.822;2022-10-12T01:36:53;3.90;99.90
20366;DHT22;10341;49.894;8.822;2022-10-12T01:42:33;4.00;99.90
20366;DHT22;10341;49.894;8.822;2022-10-12T01:47:55;4.10;99.90
20366;DHT22;10341;49.894;8.822;2022-10-12T01:59:07;4.40;99.90
20366;DHT22;10341;49.894;8.822;2022-10-12T02:04:44;4.40;99.90
20366;DHT22;10341;49.894;8.822;2022-10-12T02:10:10;4.50;99.90
20366;DHT22;10341;49.894;8.822;2022-10-12T02:15:32;4.60;99.90
20366;DHT22;10341;49.894;8.822;2022-10-12T02:20:53;4.70;99.90
20366;DHT22;10341;49.894;8.822;2022-10-12T02:26:15;4.70;99.90
20366;DHT22;10341;49.894;8.822;2022-10-12T02:31:41;4.70;99.90
20366;DHT22;10341;49.894;8.822;2022-10-12T02:42:33;4.70;99.90
20366;DHT22;10341;49.894;8.822;2022-10-12T02:47:55;4.60;99.90
20366;DHT22;10341;49.894;8.822;2022-10-12T02:53:16;4.60;99.90
20366;DHT22;10341;49.894;8.822;2022-10-12T02:58:35;4.60;99.90
20366;DHT22;10341;49.894;8.822;2022-10-12T03:03:54;4.60;99.90
20366;DHT22;10341;49.894;8.822;2022-10-12T03:09:14;4.60;99.90
20366;DHT22;10341;49.894;8.822;2022-10-12T03:14:33;4.50;99.90
20366;DHT22;10341;49.894;8.822;2022-10-12T03:19:52;4.50;99.90
20366;DHT22;10341;49.894;8.822;2022-10-12T03:25:11;4.50;99.90
20366;DHT22;10341;49.894;8.822;2022-10-12T03:30:30;4.60;99.90
20366;DHT22;10341;49.894;8.822;2022-10-12T03:35:50;4.60;99.90
20366;DHT22;10341;49.894;8.822;2022-10-12T03:41:09;4.70;99.90
20366;DHT22;10341;49.894;8.822;2022-10-12T03:46:29;4.70;99.90
20366;DHT22;10341;49.894;8.822;2022-10-12T03:51:48;4.70;99.90
20366;DHT22;10341;49.894;8.822;2022-10-12T03:57:08;4.70;99.90
20366;DHT22;10341;49.894;8.822;2022-10-12T04:02:27;4.70;99.90
20366;DHT22;10341;49.894;8.822;2022-10-12T04:07:46;4.60;99.90
20366;DHT22;10341;49.894;8.822;2022-10-12T04:13:06;4.50;99.90
20366;DHT22;10341;49.894;8.822;2022-10-12T04:18:26;4.40;99.90
20366;DHT22;10341;49.894;8.822;2022-10-12T04:23:45;4.30;99.90
20366;DHT22;10341;49.894;8.822;2022-10-12T04:29:04;4.30;99.90
20366;DHT22;10341;49.894;8.822;2022-10-12T04:34:24;4.20;99.90
20366;DHT22;10341;49.894;8.822;2022-10-12T04:39:43;4.10;99.90
20366;DHT22;10341;49.894;8.822;2022-10-12T04:45:03;4.00;99.90
20366;DHT22;10341;49.894;8.822;2022-10-12T04:50:22;4.00;99.90
20366;DHT22;10341;49.894;8.822;2022-10-12T04:55:42;3.90;99.90
20366;DHT22;10341;49.894;8.822;2022-10-12T05:01:01;3.80;99.90
20366;DHT22;10341;49.894;8.822;2022-10-12T05:06:20;3.80;99.90
20366;DHT22;10341;49.894;8.822;2022-10-12T05:11:40;3.80;99.90
20366;DHT22;10341;49.894;8.822;2022-10-12T05:16:59;3.70;99.90
20366;DHT22;10341;49.894;8.822;2022-10-12T05:22:18;3.70;99.90
20366;DHT22;10341;49.894;8.822;2022-10-12T05:27:37;3.70;99.90
20366;DHT22;10341;49.894;8.822;2022-10-12T05:32:57;3.80;99.90
20366;DHT22;10341;49.894;8.822;2022-10-12T05:38:16;3.90;99.90
20366;DHT22;10341;49.894;8.822;2022-10-12T05:43:37;3.90;99.90
20366;DHT22;10341;49.894;8.822;2022-10-12T05:48:56;4.10;99.90
20366;DHT22;10341;49.894;8.822;2022-10-12T05:54:15;4.20;99.90
20366;DHT22;10341;49.894;8.822;2022-10-12T05:59:35;4.40;99.90
20366;DHT22;10341;49.894;8.822;2022-10-12T06:04:54;4.60;99.90
20366;DHT22;10341;49.894;8.822;2022-10-12T06:10:13;4.80;99.90
20366;DHT22;10341;49.894;8.822;2022-10-12T06:15:32;4.90;99.90
20366;DHT22;10341;49.894;8.822;2022-10-12T06:20:53;5.10;99.90
20366;DHT22;10341;49.894;8.822;2022-10-12T06:26:13;5.20;99.90
20366;DHT22;10341;49.894;8.822;2022-10-12T06:31:32;5.40;99.90
20366;DHT22;10341;49.894;8.822;2022-10-12T06:36:51;5.50;99.90
20366;DHT22;10341;49.894;8.822;2022-10-12T06:42:11;5.70;99.90
20366;DHT22;10341;49.894;8.822;2022-10-12T06:47:41;5.90;99.90
20366;DHT22;10341;49.894;8.822;2022-10-12T06:53:01;6.00;99.90
20366;DHT22;10341;49.894;8.822;2022-10-12T06:58:21;6.20;99.90
20366;DHT22;10341;49.894;8.822;2022-10-12T07:03:40;6.40;99.90
20366;DHT22;10341;49.894;8.822;2022-10-12T07:08:59;6.70;99.90
20366;DHT22;10341;49.894;8.822;2022-10-12T07:14:19;6.80;99.90
20366;DHT22;10341;49.894;8.822;2022-10-12T07:19:39;7.00;99.90
20366;DHT22;10341;49.894;8.822;2022-10-12T07:24:58;7.20;99.90
20366;DHT22;10341;49.894;8.822;2022-10-12T07:30:17;7.60;99.90
20366;DHT22;10341;49.894;8.822;2022-10-12T07:35:37;8.10;99.90
20366;DHT22;10341;49.894;8.822;2022-10-12T07:41:00;8.00;99.90
20366;DHT22;10341;49.894;8.822;2022-10-12T07:46:20;8.20;99.90
20366;DHT22;10341;49.894;8.822;2022-10-12T07:51:39;8.70;99.90
20366;DHT22;10341;49.894;8.822;2022-10-12T07:56:59;9.00;99.90
20366;DHT22;10341;49.894;8.822;2022-10-12T08:02:18;9.80;99.90
20366;DHT22;10341;49.894;8.822;2022-10-12T08:07:38;10.60;99.90
20366;DHT22;10341;49.894;8.822;2022-10-12T08:12:57;11.70;99.90
20366;DHT22;10341;49.894;8.822;2022-10-12T08:18:17;13.20;99.90
20366;DHT22;10341;49.894;8.822;2022-10-12T08:23:37;15.00;99.90
20366;DHT22;10341;49.894;8.822;2022-10-12T08:28:56;17.10;99.90
20366;DHT22;10341;49.894;8.822;2022-10-12T08:34:16;17.40;99.90
20366;DHT22;10341;49.894;8.822;2022-10-12T08:39:35;19.40;99.90
20366;DHT22;10341;49.894;8.822;2022-10-12T08:45:04;20.70;99.90
20366;DHT22;10341;49.894;8.822;2022-10-12T08:50:38;19.80;99.90
20366;DHT22;10341;49.894;8.822;2022-10-12T08:55:58;21.50;99.90
20366;DHT22;10341;49.894;8.822;2022-10-12T09:01:24;21.30;99.70
20366;DHT22;10341;49.894;8.822;2022-10-12T09:06:56;22.30;98.40
20366;DHT22;10341;49.894;8.822;2022-10-12T09:12:42;23.90;96.90
20366;DHT22;10341;49.894;8.822;2022-10-12T09:18:14;24.10;96.30
20366;DHT22;10341;49.894;8.822;2022-10-12T09:23:39;24.00;94.10
20366;DHT22;10341;49.894;8.822;2022-10-12T09:28:58;21.60;98.90
20366;DHT22;10341;49.894;8.822;2022-10-12T09:34:18;19.90;99.90
20366;DHT22;10341;49.894;8.822;2022-10-12T09:39:38;22.30;99.90
20366;DHT22;10341;49.894;8.822;2022-10-12T09:45:13;24.20;96.70
20366;DHT22;10341;49.894;8.822;2022-10-12T09:56:12;27.70;90.80
20366;DHT22;10341;49.894;8.822;2022-10-12T10:01:40;27.50;90.90
20366;DHT22;10341;49.894;8.822;2022-10-12T10:12:52;28.90;87.30
20366;DHT22;10341;49.894;8.822;2022-10-12T10:18:31;28.60;87.70
20366;DHT22;10341;49.894;8.822;2022-10-12T10:24:04;28.10;88.80
20366;DHT22;10341;49.894;8.822;2022-10-12T10:29:35;28.50;86.40
20366;DHT22;10341;49.894;8.822;2022-10-12T10:35:02;28.70;86.40
20366;DHT22;10341;49.894;8.822;2022-10-12T10:40:26;29.60;83.10
20366;DHT22;10341;49.894;8.822;2022-10-12T10:46:01;29.80;83.50
20366;DHT22;10341;49.894;8.822;2022-10-12T10:51:21;29.50;82.90
20366;DHT22;10341;49.894;8.822;2022-10-12T10:56:41;28.80;83.60
20366;DHT22;10341;49.894;8.822;2022-10-12T11:02:33;26.00;90.30
20366;DHT22;10341;49.894;8.822;2022-10-12T11:08:00;24.10;92.60
20366;DHT22;10341;49.894;8.822;2022-10-12T11:13:30;26.60;90.50
20366;DHT22;10341;49.894;8.822;2022-10-12T11:18:54;27.20;90.20
20366;DHT22;10341;49.894;8.822;2022-10-12T11:24:20;28.50;87.60
20366;DHT22;10341;49.894;8.822;2022-10-12T11:29:43;27.50;89.10
20366;DHT22;10341;49.894;8.822;2022-10-12T11:35:05;24.90;92.10
20366;DHT22;10341;49.894;8.822;2022-10-12T11:40:32;23.50;94.80
20366;DHT22;10341;49.894;8.822;2022-10-12T11:45:58;23.50;95.60
20366;DHT22;10341;49.894;8.822;2022-10-12T11:51:21;25.10;93.50
20366;DHT22;10341;49.894;8.822;2022-10-12T11:56:47;25.00;94.20
20366;DHT22;10341;49.894;8.822;2022-10-12T12:02:18;28.40;91.00
20366;DHT22;10341;49.894;8.822;2022-10-12T12:24:29;25.70;93.00
20366;DHT22;10341;49.894;8.822;2022-10-12T12:29:51;26.80;92.00
20366;DHT22;10341;49.894;8.822;2022-10-12T12:40:54;27.10;91.00
20366;DHT22;10341;49.894;8.822;2022-10-12T12:46:15;27.40;90.40
20366;DHT22;10341;49.894;8.822;2022-10-12T12:51:39;26.70;91.80
20366;DHT22;10341;49.894;8.822;2022-10-12T13:08:18;24.40;95.90
20366;DHT22;10341;49.894;8.822;2022-10-12T13:14:00;25.90;94.60
20366;DHT22;10341;49.894;8.822;2022-10-12T13:19:25;26.40;92.70
20366;DHT22;10341;49.894;8.822;2022-10-12T13:24:48;26.90;92.20
20366;DHT22;10341;49.894;8.822;2022-10-12T13:30:29;25.30;93.30
20366;DHT22;10341;49.894;8.822;2022-10-12T13:36:31;23.40;97.10
20366;DHT22;10341;49.894;8.822;2022-10-12T13:41:43;22.00;99.50
20366;DHT22;10341;49.894;8.822;2022-10-12T13:52:51;20.70;99.90
20366;DHT22;10341;49.894;8.822;2022-10-12T13:58:21;20.40;99.90
20366;DHT22;10341;49.894;8.822;2022-10-12T14:03:43;20.20;99.90
20366;DHT22;10341;49.894;8.822;2022-10-12T14:09:16;19.70;99.90
20366;DHT22;10341;49.894;8.822;2022-10-12T14:14:38;19.80;99.90
20366;DHT22;10341;49.894;8.822;2022-10-12T14:20:28;19.90;99.90
20366;DHT22;10341;49.894;8.822;2022-10-12T14:25:52;20.40;99.90
20366;DHT22;10341;49.894;8.822;2022-10-12T14:31:12;20.30;99.90
20366;DHT22;10341;49.894;8.822;2022-10-12T14:36:31;20.50;99.90
20366;DHT22;10341;49.894;8.822;2022-10-12T14:41:51;20.10;99.90
20366;DHT22;10341;49.894;8.822;2022-10-12T14:52:56;19.90;99.90
20366;DHT22;10341;49.894;8.822;2022-10-12T14:58:16;19.70;99.90
20366;DHT22;10341;49.894;8.822;2022-10-12T15:03:36;19.20;99.90
20366;DHT22;10341;49.894;8.822;2022-10-12T15:08:56;18.80;99.90
20366;DHT22;10341;49.894;8.822;2022-10-12T15:14:15;18.70;99.90
20366;DHT22;10341;49.894;8.822;2022-10-12T15:19:35;18.70;99.90
20366;DHT22;10341;49.894;8.822;2022-10-12T15:24:55;18.40;99.90
20366;DHT22;10341;49.894;8.822;2022-10-12T15:30:15;18.20;99.90
20366;DHT22;10341;49.894;8.822;2022-10-12T15:35:34;18.00;99.90
20366;DHT22;10341;49.894;8.822;2022-10-12T15:40:54;17.70;99.90
20366;DHT22;10341;49.894;8.822;2022-10-12T15:46:16;17.50;99.90
20366;DHT22;10341;49.894;8.822;2022-10-12T15:51:40;17.20;99.90
20366;DHT22;10341;49.894;8.822;2022-10-12T15:57:02;16.90;99.90
20366;DHT22;10341;49.894;8.822;2022-10-12T16:02:22;16.70;99.90
20366;DHT22;10341;49.894;8.822;2022-10-12T16:07:42;16.60;99.90
20366;DHT22;10341;49.894;8.822;2022-10-12T16:13:03;16.40;99.90
20366;DHT22;10341;49.894;8.822;2022-10-12T16:18:23;16.20;99.90
20366;DHT22;10341;49.894;8.822;2022-10-12T16:23:43;16.10;99.90
20366;DHT22;10341;49.894;8.822;2022-10-12T16:29:02;15.90;99.90
20366;DHT22;10341;49.894;8.822;2022-10-12T16:34:21;15.70;99.90
20366;DHT22;10341;49.894;8.822;2022-10-12T16:39:41;15.50;99.90
20366;DHT22;10341;49.894;8.822;2022-10-12T16:45:01;15.30;99.90
20366;DHT22;10341;49.894;8.822;2022-10-12T16:50:22;15.00;99.90
20366;DHT22;10341;49.894;8.822;2022-10-12T16:55:42;14.80;99.90
20366;DHT22;10341;49.894;8.822;2022-10-12T17:01:12;14.40;99.90
20366;DHT22;10341;49.894;8.822;2022-10-12T17:06:31;14.20;99.90
20366;DHT22;10341;49.894;8.822;2022-10-12T17:11:51;14.00;99.90
20366;DHT22;10341;49.894;8.822;2022-10-12T17:17:10;13.80;99.90
20366;DHT22;10341;49.894;8.822;2022-10-12T17:22:29;13.60;99.90
20366;DHT22;10341;49.894;8.822;2022-10-12T17:27:48;13.50;99.90
20366;DHT22;10341;49.894;8.822;2022-10-12T17:33:08;13.30;99.90
20366;DHT22;10341;49.894;8.822;2022-10-12T17:38:27;13.20;99.90
20366;DHT22;10341;49.894;8.822;2022-10-12T17:43:46;13.00;99.90
20366;DHT22;10341;49.894;8.822;2022-10-12T17:49:06;12.90;99.90
20366;DHT22;10341;49.894;8.822;2022-10-12T17:54:26;12.80;99.90
20366;DHT22;10341;49.894;8.822;2022-10-12T17:59:45;12.70;99.90
20366;DHT22;10341;49.894;8.822;2022-10-12T18:05:05;12.60;99.90
20366;DHT22;10341;49.894;8.822;2022-10-12T18:10:24;12.70;99.90
20366;DHT22;10341;49.894;8.822;2022-10-12T18:15:43;12.60;99.90
20366;DHT22;10341;49.894;8.822;2022-10-12T18:21:04;12.60;99.90
20366;DHT22;10341;49.894;8.822;2022-10-12T18:26:24;12.50;99.90
20366;DHT22;10341;49.894;8.822;2022-10-12T18:31:45;12.30;99.90
20366;DHT22;10341;49.894;8.822;2022-10-12T18:37:06;12.10;99.90
20366;DHT22;10341;49.894;8.822;2022-10-12T18:42:25;12.10;99.90
20366;DHT22;10341;49.894;8.822;2022-10-12T18:47:44;12.00;99.90
20366;DHT22;10341;49.894;8.822;2022-10-12T18:53:04;12.00;99.90
20366;DHT22;10341;49.894;8.822;2022-10-12T18:58:23;11.90;99.90
20366;DHT22;10341;49.894;8.822;2022-10-12T19:03:42;11.80;99.90
20366;DHT22;10341;49.894;8.822;2022-10-12T19:09:02;11.70;99.90
20366;DHT22;10341;49.894;8.822;2022-10-12T19:14:22;11.60;99.90
20366;DHT22;10341;49.894;8.822;2022-10-12T19:19:41;11.50;99.90
20366;DHT22;10341;49.894;8.822;2022-10-12T19:25:00;11.40;99.90
20366;DHT22;10341;49.894;8.822;2022-10-12T19:30:19;11.10;99.90
20366;DHT22;10341;49.894;8.822;2022-10-12T19:35:39;10.90;99.90
20366;DHT22;10341;49.894;8.822;2022-10-12T19:40:58;10.70;99.90
20366;DHT22;10341;49.894;8.822;2022-10-12T19:46:18;10.50;99.90
20366;DHT22;10341;49.894;8.822;2022-10-12T19:51:37;10.50;99.90
20366;DHT22;10341;49.894;8.822;2022-10-12T19:56:57;10.30;99.90
20366;DHT22;10341;49.894;8.822;2022-10-12T20:02:16;10.20;99.90
20366;DHT22;10341;49.894;8.822;2022-10-12T20:07:36;10.10;99.90
20366;DHT22;10341;49.894;8.822;2022-10-12T20:12:55;10.00;99.90
20366;DHT22;10341;49.894;8.822;2022-10-12T20:18:14;9.80;99.90
20366;DHT22;10341;49.894;8.822;2022-10-12T20:23:37;9.80;99.90
20366;DHT22;10341;49.894;8.822;2022-10-12T20:28:57;9.80;99.90
20366;DHT22;10341;49.894;8.822;2022-10-12T20:34:18;9.80;99.90
20366;DHT22;10341;49.894;8.822;2022-10-12T20:39:37;9.60;99.90
20366;DHT22;10341;49.894;8.822;2022-10-12T20:44:57;9.50;99.90
20366;DHT22;10341;49.894;8.822;2022-10-12T20:50:16;9.50;99.90
20366;DHT22;10341;49.894;8.822;2022-10-12T20:55:38;9.60;99.90
20366;DHT22;10341;49.894;8.822;2022-10-12T21:01:06;9.60;99.90
20366;DHT22;10341;49.894;8.822;2022-10-12T21:06:25;9.50;99.90
20366;DHT22;10341;49.894;8.822;2022-10-12T21:11:46;9.40;99.90
20366;DHT22;10341;49.894;8.822;2022-10-12T21:17:05;9.30;99.90
20366;DHT22;10341;49.894;8.822;2022-10-12T21:22:24;9.20;99.90
20366;DHT22;10341;49.894;8.822;2022-10-12T21:27:43;9.20;99.90
20366;DHT22;10341;49.894;8.822;2022-10-12T21:33:02;9.10;99.90
20366;DHT22;10341;49.894;8.822;2022-10-12T21:38:21;9.00;99.90
20366;DHT22;10341;49.894;8.822;2022-10-12T21:43:41;9.00;99.90
20366;DHT22;10341;49.894;8.822;2022-10-12T21:49:03;9.00;99.90
20366;DHT22;10341;49.894;8.822;2022-10-12T21:54:22;8.90;99.90
20366;DHT22;10341;49.894;8.822;2022-10-12T21:59:42;8.70;99.90
20366;DHT22;10341;49.894;8.822;2022-10-12T22:05:01;8.60;99.90
20366;DHT22;10341;49.894;8.822;2022-10-12T22:10:21;8.60;99.90
20366;DHT22;10341;49.894;8.822;2022-10-12T22:15:40;8.70;99.90
20366;DHT22;10341;49.894;8.822;2022-10-12T22:21:07;8.70;99.90
20366;DHT22;10341;49.894;8.822;2022-10-12T22:26:27;8.80;99.90
20366;DHT22;10341;49.894;8.822;2022-10-12T22:31:47;8.80;99.90
20366;DHT22;10341;49.894;8.822;2022-10-12T22:37:07;8.70;99.90
20366;DHT22;10341;49.894;8.822;2022-10-12T22:42:26;8.70;99.90
20366;DHT22;10341;49.894;8.822;2022-10-12T22:47:45;8.70;99.90
20366;DHT22;10341;49.894;8.822;2022-10-12T22:53:04;8.60;99.90
20366;DHT22;10341;49.894;8.822;2022-10-12T22:58:23;8.50;99.90
20366;DHT22;10341;49.894;8.822;2022-10-12T23:03:43;8.40;99.90
20366;DHT22;10341;49.894;8.822;2022-10-12T23:09:06;8.30;99.90
20366;DHT22;10341;49.894;8.822;2022-10-12T23:14:25;8.10;99.90
20366;DHT22;10341;49.894;8.822;2022-10-12T23:19:44;8.10;99.90
20366;DHT22;10341;49.894;8.822;2022-10-12T23:25:03;8.00;99.90
20366;DHT22;10341;49.894;8.822;2022-10-12T23:30:23;7.90;99.90
20366;DHT22;10341;49.894;8.822;2022-10-12T23:35:42;7.80;99.90
20366;DHT22;10341;49.894;8.822;2022-10-12T23:41:02;7.80;99.90
20366;DHT22;10341;49.894;8.822;2022-10-12T23:46:21;7.70;99.90
20366;DHT22;10341;49.894;8.822;2022-10-12T23:51:40;7.60;99.90
20366;DHT22;10341;49.894;8.822;2022-10-12T23:56:59;7.50;99.90
